createdAt,value
2022-11-28T00:01:24.508Z,3.60
2022-11-28T00:03:51.256Z,3.70
2022-11-28T00:06:18.514Z,3.60
2022-11-28T00:08:45.256Z,3.60
2022-11-28T00:11:14.343Z,3.50
2022-11-28T00:13:41.686Z,3.60
2022-11-28T00:16:09.858Z,3.60
2022-11-28T00:18:36.549Z,3.60
2022-11-28T00:21:09.589Z,3.60
2022-11-28T00:23:36.379Z,3.60
2022-11-28T00:26:09.544Z,3.60
2022-11-28T00:28:36.821Z,3.60
2022-11-28T00:31:04.448Z,3.50
2022-11-28T00:33:32.366Z,3.60
2022-11-28T00:36:04.448Z,3.50
2022-11-28T00:38:31.729Z,3.60
2022-11-28T00:41:04.056Z,3.60
2022-11-28T00:43:31.152Z,3.60
2022-11-28T00:45:57.862Z,3.50
2022-11-28T00:48:25.137Z,3.50
2022-11-28T00:50:52.539Z,3.50
2022-11-28T00:53:19.291Z,3.50
2022-11-28T00:55:48.013Z,3.50
2022-11-28T00:58:14.753Z,3.50
2022-11-28T01:00:41.604Z,3.50
2022-11-28T01:03:08.443Z,3.50
2022-11-28T01:05:41.712Z,3.50
2022-11-28T01:08:08.573Z,3.50
2022-11-28T01:10:38.728Z,3.50
2022-11-28T01:13:05.588Z,3.50
2022-11-28T01:15:32.366Z,3.50
2022-11-28T01:17:59.757Z,3.50
2022-11-28T01:20:26.458Z,3.50
2022-11-28T01:22:53.094Z,3.50
2022-11-28T01:25:19.837Z,3.50
2022-11-28T01:27:46.647Z,3.50
2022-11-28T01:30:13.544Z,3.50
2022-11-28T01:32:40.193Z,3.50
2022-11-28T01:35:07.125Z,3.50
2022-11-28T01:37:33.765Z,3.50
2022-11-28T01:40:00.457Z,3.50
2022-11-28T01:42:27.192Z,3.50
2022-11-28T01:44:53.875Z,3.50
2022-11-28T01:47:27.701Z,3.50
2022-11-28T01:49:54.794Z,3.40
2022-11-28T01:52:22.414Z,3.40
2022-11-28T01:54:53.332Z,3.30
2022-11-28T01:57:25.489Z,3.30
2022-11-28T02:00:14.504Z,3.30
2022-11-28T02:02:41.163Z,3.30
2022-11-28T02:05:08.278Z,3.20
2022-11-28T02:07:36.033Z,3.30
2022-11-28T02:10:05.623Z,3.30
2022-11-28T02:12:58.312Z,3.20
2022-11-28T02:15:32.216Z,3.20
2022-11-28T02:18:05.563Z,3.20
2022-11-28T02:20:47.579Z,3.20
2022-11-28T02:23:32.401Z,3.20
2022-11-28T02:26:40.194Z,3.20
2022-11-28T02:29:13.166Z,3.20
2022-11-28T02:31:57.374Z,3.20
2022-11-28T02:34:32.680Z,3.20
2022-11-28T02:37:09.393Z,3.20
2022-11-28T02:39:48.708Z,3.20
2022-11-28T02:42:54.631Z,3.20
2022-11-28T02:45:39.776Z,3.20
2022-11-28T02:48:41.526Z,3.30
2022-11-28T02:51:18.729Z,3.20
2022-11-28T02:53:46.628Z,3.30
2022-11-28T02:56:13.895Z,3.30
2022-11-28T02:58:40.806Z,3.20
2022-11-28T03:01:17.313Z,3.20
2022-11-28T03:03:55.950Z,3.30
2022-11-28T03:06:34.812Z,3.20
2022-11-28T03:09:28.624Z,3.20
2022-11-28T03:12:09.966Z,3.30
2022-11-28T03:14:39.755Z,3.20
2022-11-28T03:17:24.634Z,3.20
2022-11-28T03:20:17.210Z,3.20
2022-11-28T03:23:03.704Z,3.20
2022-11-28T03:26:05.586Z,3.20
2022-11-28T03:28:42.150Z,3.20
2022-11-28T03:31:15.854Z,3.20
2022-11-28T03:33:47.486Z,3.20
2022-11-28T03:36:19.794Z,3.20
2022-11-28T03:38:51.239Z,3.20
2022-11-28T03:41:24.563Z,3.20
2022-11-28T03:43:55.406Z,3.20
2022-11-28T03:46:25.431Z,3.20
2022-11-28T03:48:56.806Z,3.20
2022-11-28T03:51:56.586Z,3.10
2022-11-28T03:54:55.522Z,3.10
2022-11-28T03:57:35.049Z,3.10
2022-11-28T04:00:08.005Z,3.10
2022-11-28T04:02:42.468Z,3.10
2022-11-28T04:05:30.797Z,3.10
2022-11-28T04:08:35.486Z,3.10
2022-11-28T04:11:13.551Z,3.10
2022-11-28T04:13:48.372Z,3.10
2022-11-28T04:16:34.118Z,3.10
2022-11-28T04:19:30.125Z,3.00
2022-11-28T04:22:10.691Z,3.10
2022-11-28T04:24:51.671Z,3.00
2022-11-28T04:27:23.548Z,3.00
2022-11-28T04:29:54.991Z,3.00
2022-11-28T04:32:24.399Z,2.90
2022-11-28T04:34:57.009Z,2.90
2022-11-28T04:37:27.108Z,2.90
2022-11-28T04:39:56.398Z,2.90
2022-11-28T04:42:52.788Z,2.90
2022-11-28T04:45:31.145Z,2.90
2022-11-28T04:47:58.204Z,2.90
2022-11-28T04:50:31.554Z,2.90
2022-11-28T04:53:40.997Z,2.90
2022-11-28T04:56:18.271Z,2.90
2022-11-28T04:58:48.613Z,2.90
2022-11-28T05:01:22.015Z,2.90
2022-11-28T05:03:49.357Z,2.90
2022-11-28T05:06:25.589Z,2.90
2022-11-28T05:08:52.500Z,2.90
2022-11-28T05:11:19.958Z,2.90
2022-11-28T05:13:46.814Z,2.80
2022-11-28T05:16:14.716Z,2.90
2022-11-28T05:18:41.819Z,2.90
2022-11-28T05:21:09.147Z,2.90
2022-11-28T05:23:40.449Z,2.90
2022-11-28T05:26:16.581Z,2.90
2022-11-28T05:28:45.451Z,2.90
2022-11-28T05:31:12.915Z,2.90
2022-11-28T05:33:42.194Z,2.90
2022-11-28T05:36:13.308Z,2.80
2022-11-28T05:38:40.735Z,2.90
2022-11-28T05:41:08.066Z,2.90
2022-11-28T05:43:34.760Z,2.90
2022-11-28T05:46:04.173Z,3.00
2022-11-28T05:48:30.925Z,3.00
2022-11-28T05:50:57.627Z,3.10
2022-11-28T05:53:24.461Z,3.10
2022-11-28T05:55:51.288Z,3.20
2022-11-28T05:58:18.168Z,3.20
2022-11-28T06:00:44.858Z,3.20
2022-11-28T06:03:11.609Z,3.20
2022-11-28T06:05:43.943Z,3.20
2022-11-28T06:08:14.126Z,3.20
2022-11-28T06:10:41.197Z,3.20
2022-11-28T06:13:08.714Z,3.20
2022-11-28T06:15:38.194Z,3.20
2022-11-28T06:18:05.691Z,3.10
2022-11-28T06:20:34.610Z,3.00
2022-11-28T06:23:01.488Z,3.00
2022-11-28T06:25:28.356Z,3.00
2022-11-28T06:27:55.001Z,3.00
2022-11-28T06:30:21.647Z,3.00
2022-11-28T06:32:48.380Z,2.90
2022-11-28T06:35:15.172Z,2.80
2022-11-28T06:37:41.813Z,2.80
2022-11-28T06:40:08.677Z,2.90
2022-11-28T06:42:36.473Z,2.90
2022-11-28T06:45:04.987Z,2.80
2022-11-28T06:47:32.478Z,2.80
2022-11-28T06:49:59.222Z,2.70
2022-11-28T06:52:26.514Z,2.70
2022-11-28T06:54:53.166Z,2.80
2022-11-28T06:57:20.032Z,2.80
2022-11-28T06:59:48.817Z,2.80
2022-11-28T07:02:15.659Z,2.80
2022-11-28T07:04:42.388Z,2.80
2022-11-28T07:07:12.556Z,2.80
2022-11-28T07:09:42.066Z,2.70
2022-11-28T07:12:09.122Z,2.70
2022-11-28T07:14:35.926Z,2.70
2022-11-28T07:17:02.746Z,2.70
2022-11-28T07:19:29.642Z,2.70
2022-11-28T07:21:56.317Z,2.80
2022-11-28T07:24:23.194Z,2.80
2022-11-28T07:26:49.828Z,2.80
2022-11-28T07:29:18.841Z,2.70
2022-11-28T07:31:45.773Z,2.80
2022-11-28T07:34:12.962Z,2.80
2022-11-28T07:36:39.638Z,2.80
2022-11-28T07:39:08.821Z,2.80
2022-11-28T07:41:36.188Z,2.80
2022-11-28T07:44:04.411Z,2.80
2022-11-28T07:46:32.934Z,2.80
2022-11-28T07:49:00.253Z,2.80
2022-11-28T07:51:29.311Z,2.80
2022-11-28T07:53:56.624Z,2.80
2022-11-28T07:56:35.073Z,2.90
2022-11-28T07:59:07.337Z,2.90
2022-11-28T08:01:37.979Z,2.90
2022-11-28T08:04:08.070Z,2.90
2022-11-28T08:06:41.503Z,2.90
2022-11-28T08:09:08.665Z,2.90
2022-11-28T08:11:35.857Z,2.90
2022-11-28T08:14:03.857Z,2.90
2022-11-28T08:16:31.356Z,2.90
2022-11-28T08:19:02.311Z,2.90
2022-11-28T08:21:32.118Z,3.00
2022-11-28T08:24:01.252Z,2.90
2022-11-28T08:26:30.964Z,3.00
2022-11-28T08:28:58.803Z,3.00
2022-11-28T08:31:31.879Z,3.10
2022-11-28T08:34:00.988Z,3.10
2022-11-28T08:36:29.333Z,3.10
2022-11-28T08:39:09.804Z,3.10
2022-11-28T08:41:46.893Z,3.20
2022-11-28T08:44:13.813Z,3.20
2022-11-28T08:46:40.491Z,3.20
2022-11-28T08:49:07.547Z,3.20
2022-11-28T08:51:34.431Z,3.20
2022-11-28T08:54:01.102Z,3.20
2022-11-28T08:56:28.338Z,3.30
2022-11-28T08:58:55.492Z,3.30
2022-11-28T09:01:24.664Z,3.30
2022-11-28T09:03:52.797Z,3.50
2022-11-28T09:06:21.235Z,3.50
2022-11-28T09:08:49.042Z,3.50
2022-11-28T09:11:18.349Z,3.60
2022-11-28T09:13:45.614Z,3.70
2022-11-28T09:16:13.019Z,3.70
2022-11-28T09:18:40.085Z,3.70
2022-11-28T09:21:09.418Z,3.70
2022-11-28T09:23:37.572Z,3.70
2022-11-28T09:26:18.781Z,3.80
2022-11-28T09:28:45.770Z,3.90
2022-11-28T09:31:13.937Z,3.90
2022-11-28T09:33:41.654Z,3.90
2022-11-28T09:36:11.649Z,4.00
2022-11-28T09:38:39.023Z,4.00
2022-11-28T09:41:28.755Z,4.00
2022-11-28T09:44:00.739Z,4.00
2022-11-28T09:46:34.443Z,4.00
2022-11-28T09:49:05.095Z,4.10
2022-11-28T09:51:42.871Z,4.20
2022-11-28T09:54:17.498Z,4.20
2022-11-28T09:56:47.657Z,4.20
2022-11-28T09:59:25.462Z,4.30
2022-11-28T10:02:29.610Z,4.30
2022-11-28T10:05:15.841Z,4.30
2022-11-28T10:07:42.480Z,4.30
2022-11-28T10:10:18.223Z,4.40
2022-11-28T10:13:02.953Z,4.40
2022-11-28T10:15:38.352Z,4.50
2022-11-28T10:18:20.360Z,4.50
2022-11-28T10:20:51.698Z,4.50
2022-11-28T10:23:26.315Z,4.60
2022-11-28T10:25:58.178Z,4.70
2022-11-28T10:28:34.310Z,4.70
2022-11-28T10:31:07.437Z,4.80
2022-11-28T10:33:41.763Z,4.80
2022-11-28T10:36:23.659Z,4.90
2022-11-28T10:38:50.363Z,5.00
2022-11-28T10:41:23.852Z,5.10
2022-11-28T10:44:06.457Z,5.10
2022-11-28T10:46:59.539Z,5.10
2022-11-28T10:49:38.846Z,5.10
2022-11-28T10:52:24.197Z,5.10
2022-11-28T10:55:24.102Z,5.20
2022-11-28T10:58:09.387Z,5.20
2022-11-28T11:00:37.301Z,5.20
2022-11-28T11:03:05.828Z,5.30
2022-11-28T11:05:35.340Z,5.30
2022-11-28T11:08:11.724Z,5.40
2022-11-28T11:10:44.904Z,5.50
2022-11-28T11:13:23.748Z,5.50
2022-11-28T11:16:00.369Z,5.60
2022-11-28T11:18:36.738Z,5.60
2022-11-28T11:21:26.003Z,5.60
2022-11-28T11:24:18.455Z,5.60
2022-11-28T11:26:48.729Z,5.60
2022-11-28T11:29:35.529Z,5.60
2022-11-28T11:32:06.083Z,5.70
2022-11-28T11:34:42.754Z,5.70
2022-11-28T11:37:41.181Z,5.70
2022-11-28T11:40:19.966Z,5.80
2022-11-28T11:43:01.326Z,5.80
2022-11-28T11:45:35.383Z,5.90
2022-11-28T11:48:03.863Z,5.90
2022-11-28T11:50:32.863Z,5.90
2022-11-28T11:53:14.472Z,6.00
2022-11-28T11:55:53.766Z,5.90
2022-11-28T11:58:28.067Z,5.90
2022-11-28T12:00:58.278Z,5.90
2022-11-28T12:03:29.150Z,5.90
2022-11-28T12:06:14.157Z,5.90
2022-11-28T12:08:54.460Z,5.90
2022-11-28T12:11:32.118Z,5.90
2022-11-28T12:14:04.795Z,6.00
2022-11-28T12:16:57.318Z,6.00
2022-11-28T12:19:40.489Z,6.00
2022-11-28T12:22:37.513Z,6.00
2022-11-28T12:25:11.076Z,6.10
2022-11-28T12:28:18.512Z,6.10
2022-11-28T12:30:51.396Z,6.10
2022-11-28T12:33:37.397Z,6.10
2022-11-28T12:36:37.299Z,6.20
2022-11-28T12:39:21.982Z,6.20
2022-11-28T12:41:51.537Z,6.20
2022-11-28T12:44:26.903Z,6.20
2022-11-28T12:47:02.155Z,6.20
2022-11-28T12:49:52.714Z,6.20
2022-11-28T12:52:45.622Z,6.30
2022-11-28T12:55:20.255Z,6.30
2022-11-28T12:57:57.220Z,6.30
2022-11-28T13:00:27.880Z,6.30
2022-11-28T13:03:28.851Z,6.30
2022-11-28T13:06:33.745Z,6.40
2022-11-28T13:09:17.635Z,6.40
2022-11-28T13:12:05.809Z,6.40
2022-11-28T13:14:41.102Z,6.50
2022-11-28T13:17:25.135Z,6.50
2022-11-28T13:20:13.179Z,6.50
2022-11-28T13:22:50.690Z,6.60
2022-11-28T13:25:36.445Z,6.60
2022-11-28T13:28:15.763Z,6.60
2022-11-28T13:30:50.335Z,6.60
2022-11-28T13:33:53.354Z,6.60
2022-11-28T13:39:50.551Z,6.70
2022-11-28T13:43:02.304Z,6.70
2022-11-28T13:45:32.553Z,6.80
2022-11-28T13:48:00.924Z,6.80
2022-11-28T13:50:35.087Z,6.80
2022-11-28T13:53:07.665Z,6.80
2022-11-28T13:55:41.881Z,6.90
2022-11-28T13:58:31.752Z,6.90
2022-11-28T14:01:06.657Z,6.90
2022-11-28T14:03:36.626Z,6.90
2022-11-28T14:06:07.052Z,6.90
2022-11-28T14:08:41.280Z,6.80
2022-11-28T14:11:24.248Z,6.90
2022-11-28T14:13:55.286Z,6.90
2022-11-28T14:16:40.052Z,6.90
2022-11-28T14:19:16.357Z,6.90
2022-11-28T14:21:48.706Z,6.90
2022-11-28T14:24:38.690Z,6.90
2022-11-28T14:27:06.896Z,6.90
2022-11-28T14:29:39.765Z,6.90
2022-11-28T14:32:29.173Z,7.00
2022-11-28T14:34:53.951Z,7.00
2022-11-28T14:37:21.217Z,6.90
2022-11-28T14:39:49.392Z,7.00
2022-11-28T14:42:36.967Z,7.00
2022-11-28T14:45:23.278Z,7.00
2022-11-28T14:48:17.952Z,6.90
2022-11-28T14:50:51.664Z,7.00
2022-11-28T14:53:38.011Z,6.90
2022-11-28T14:56:15.230Z,6.90
2022-11-28T14:58:49.845Z,6.90
2022-11-28T15:01:30.952Z,6.90
2022-11-28T15:04:08.925Z,6.90
2022-11-28T15:06:37.916Z,6.90
2022-11-28T15:09:17.824Z,6.90
2022-11-28T15:12:12.451Z,6.90
2022-11-28T15:14:39.902Z,6.90
2022-11-28T15:17:13.611Z,6.90
2022-11-28T15:19:47.542Z,6.90
2022-11-28T15:22:29.728Z,6.90
2022-11-28T15:24:56.442Z,6.80
2022-11-28T15:27:25.503Z,6.80
2022-11-28T15:30:00.155Z,6.90
2022-11-28T15:32:30.645Z,6.80
2022-11-28T15:35:00.948Z,6.80
2022-11-28T15:37:31.018Z,6.80
2022-11-28T15:39:59.238Z,6.80
2022-11-28T15:42:32.268Z,6.70
2022-11-28T15:45:04.963Z,6.70
2022-11-28T15:47:31.961Z,6.70
2022-11-28T15:50:14.448Z,6.70
2022-11-28T15:52:52.133Z,6.70
2022-11-28T15:55:19.997Z,6.70
2022-11-28T15:57:46.874Z,6.70
2022-11-28T16:00:18.886Z,6.70
2022-11-28T16:02:46.445Z,6.70
2022-11-28T16:05:21.828Z,6.70
2022-11-28T16:07:50.789Z,6.70
2022-11-28T16:10:35.235Z,6.70
2022-11-28T16:13:07.938Z,6.70
2022-11-28T16:15:34.701Z,6.60
2022-11-28T16:18:01.610Z,6.70
2022-11-28T16:20:35.147Z,6.60
2022-11-28T16:23:09.960Z,6.60
2022-11-28T16:25:36.879Z,6.60
2022-11-28T16:28:04.453Z,6.60
2022-11-28T16:30:44.616Z,6.60
2022-11-28T16:33:37.511Z,6.60
2022-11-28T16:36:20.765Z,6.60
2022-11-28T16:38:49.022Z,6.60
2022-11-28T16:41:25.668Z,6.50
2022-11-28T16:44:00.186Z,6.50
2022-11-28T16:46:36.103Z,6.60
2022-11-28T16:49:05.087Z,6.50
2022-11-28T16:51:35.031Z,6.60
2022-11-28T16:54:29.188Z,6.50
2022-11-28T16:57:14.494Z,6.50
2022-11-28T16:59:42.535Z,6.50
2022-11-28T17:02:26.877Z,6.50
2022-11-28T17:04:54.106Z,6.50
2022-11-28T17:07:23.078Z,6.50
2022-11-28T17:09:50.374Z,6.50
2022-11-28T17:12:27.264Z,6.40
2022-11-28T17:14:55.158Z,6.40
2022-11-28T17:17:23.418Z,6.40
2022-11-28T17:19:50.813Z,6.40
2022-11-28T17:22:20.354Z,6.40
2022-11-28T17:24:48.673Z,6.30
2022-11-28T17:27:15.850Z,6.40
2022-11-28T17:29:43.047Z,6.40
2022-11-28T17:32:14.359Z,6.40
2022-11-28T17:34:46.174Z,6.40
2022-11-28T17:37:13.082Z,6.40
2022-11-28T17:39:39.942Z,6.40
2022-11-28T17:42:06.636Z,6.40
2022-11-28T17:44:36.302Z,6.40
2022-11-28T17:47:04.053Z,6.40
2022-11-28T17:49:31.196Z,6.30
2022-11-28T17:51:58.298Z,6.30
2022-11-28T17:54:26.408Z,6.30
2022-11-28T17:56:53.573Z,6.30
2022-11-28T17:59:22.832Z,6.30
2022-11-28T18:01:50.025Z,6.30
2022-11-28T18:04:17.140Z,6.30
2022-11-28T18:06:45.237Z,6.40
2022-11-28T18:09:13.030Z,6.30
2022-11-28T18:11:40.683Z,6.30
2022-11-28T18:14:08.117Z,6.30
2022-11-28T18:16:39.691Z,6.30
2022-11-28T18:19:06.879Z,6.30
2022-11-28T18:21:33.721Z,6.30
2022-11-28T18:24:00.385Z,6.30
2022-11-28T18:26:27.358Z,6.20
2022-11-28T18:28:54.811Z,6.20
2022-11-28T18:31:26.813Z,6.30
2022-11-28T18:33:58.776Z,6.30
2022-11-28T18:36:29.408Z,6.20
2022-11-28T18:39:05.219Z,6.20
2022-11-28T18:41:32.708Z,6.20
2022-11-28T18:44:01.371Z,6.20
2022-11-28T18:46:29.649Z,6.20
2022-11-28T18:48:56.698Z,6.20
2022-11-28T18:51:29.291Z,6.20
2022-11-28T18:53:57.401Z,6.20
2022-11-28T18:56:25.602Z,6.20
2022-11-28T18:58:54.239Z,6.20
2022-11-28T19:01:39.164Z,6.20
2022-11-28T19:04:09.651Z,6.20
2022-11-28T19:06:37.691Z,6.10
2022-11-28T19:09:07.729Z,6.20
2022-11-28T19:11:34.472Z,6.10
2022-11-28T19:14:01.251Z,6.10
2022-11-28T19:16:31.497Z,6.10
2022-11-28T19:19:00.538Z,6.10
2022-11-28T19:21:29.488Z,6.10
2022-11-28T19:23:56.864Z,6.10
2022-11-28T19:26:25.289Z,6.10
2022-11-28T19:28:52.555Z,6.10
2022-11-28T19:31:28.036Z,6.10
2022-11-28T19:34:01.566Z,6.10
2022-11-28T19:36:30.564Z,6.10
2022-11-28T19:38:58.654Z,6.10
2022-11-28T19:41:25.672Z,6.10
2022-11-28T19:43:52.406Z,6.10
2022-11-28T19:46:19.827Z,6.10
2022-11-28T19:48:46.801Z,6.10
2022-11-28T19:51:14.359Z,6.10
2022-11-28T19:53:43.121Z,6.20
2022-11-28T19:56:20.940Z,6.10
2022-11-28T19:58:47.818Z,6.10
2022-11-28T20:01:19.877Z,6.10
2022-11-28T20:03:48.372Z,6.10
2022-11-28T20:06:20.698Z,6.10
2022-11-28T20:08:48.056Z,6.10
2022-11-28T20:11:17.432Z,6.10
2022-11-28T20:13:44.972Z,6.10
2022-11-28T20:16:14.736Z,6.10
2022-11-28T20:18:43.810Z,6.10
2022-11-28T20:21:16.913Z,6.10
2022-11-28T20:23:46.844Z,6.10
2022-11-28T20:26:15.427Z,6.10
2022-11-28T20:28:43.001Z,6.10
2022-11-28T20:31:21.278Z,6.10
2022-11-28T20:33:49.388Z,6.10
2022-11-28T20:36:17.991Z,6.10
2022-11-28T20:38:45.074Z,6.10
2022-11-28T20:41:13.861Z,6.10
2022-11-28T20:43:41.287Z,6.10
2022-11-28T20:46:11.834Z,6.10
2022-11-28T20:48:39.230Z,6.10
2022-11-28T20:51:10.880Z,6.10
2022-11-28T20:53:41.090Z,6.10
2022-11-28T20:56:13.357Z,6.10
2022-11-28T20:58:40.663Z,6.10
2022-11-28T21:01:08.005Z,6.10
2022-11-28T21:03:35.072Z,6.00
2022-11-28T21:06:02.321Z,6.00
2022-11-28T21:08:31.398Z,6.00
2022-11-28T21:10:58.457Z,6.00
2022-11-28T21:13:25.460Z,6.00
2022-11-28T21:15:53.670Z,6.00
2022-11-28T21:18:20.726Z,6.00
2022-11-28T21:20:48.346Z,6.00
2022-11-28T21:23:16.817Z,6.00
2022-11-28T21:25:44.787Z,5.90
2022-11-28T21:28:12.458Z,6.00
2022-11-28T21:30:42.768Z,5.90
2022-11-28T21:33:11.462Z,6.00
2022-11-28T21:35:39.886Z,5.90
2022-11-28T21:38:07.569Z,5.90
2022-11-28T21:40:34.540Z,5.90
2022-11-28T21:43:01.917Z,5.90
2022-11-28T21:45:29.173Z,5.90
2022-11-28T21:47:56.145Z,5.90
2022-11-28T21:50:23.378Z,5.90
2022-11-28T21:52:50.304Z,5.90
2022-11-28T21:55:17.392Z,5.90
2022-11-28T21:57:44.360Z,5.90
2022-11-28T22:00:25.941Z,5.90
2022-11-28T22:03:03.906Z,6.10
2022-11-28T22:05:33.162Z,5.90
2022-11-28T22:08:00.697Z,5.90
2022-11-28T22:10:27.911Z,5.90
2022-11-28T22:12:55.011Z,5.90
2022-11-28T22:15:23.197Z,5.90
2022-11-28T22:17:50.209Z,5.90
2022-11-28T22:20:17.109Z,5.90
2022-11-28T22:22:44.031Z,5.90
2022-11-28T22:25:13.428Z,5.90
2022-11-28T22:27:40.554Z,5.90
2022-11-28T22:30:08.932Z,5.90
2022-11-28T22:32:35.944Z,5.90
2022-11-28T22:35:02.950Z,5.90
2022-11-28T22:37:30.197Z,5.90
2022-11-28T22:39:57.131Z,5.90
2022-11-28T22:42:24.029Z,5.80
2022-11-28T22:44:50.968Z,5.80
2022-11-28T22:47:17.810Z,5.80
2022-11-28T22:49:44.693Z,5.80
2022-11-28T22:52:11.778Z,5.80
2022-11-28T22:54:38.729Z,5.80
2022-11-28T22:57:05.700Z,5.80
2022-11-28T22:59:35.175Z,5.80
2022-11-28T23:02:03.452Z,5.80
2022-11-28T23:04:30.537Z,5.80
2022-11-28T23:06:57.503Z,5.80
2022-11-28T23:09:24.371Z,5.80
2022-11-28T23:11:54.008Z,5.80
2022-11-28T23:14:21.159Z,5.80
2022-11-28T23:16:48.071Z,5.80
2022-11-28T23:19:17.417Z,5.70
2022-11-28T23:21:46.740Z,5.70
2022-11-28T23:24:16.073Z,5.80
2022-11-28T23:26:43.126Z,5.80
2022-11-28T23:29:10.523Z,5.80
2022-11-28T23:31:40.859Z,5.70
2022-11-28T23:34:08.837Z,5.80
2022-11-28T23:36:42.794Z,5.80
2022-11-28T23:39:14.607Z,5.80
2022-11-28T23:41:42.286Z,5.80
2022-11-28T23:44:11.558Z,5.70
2022-11-28T23:46:39.331Z,5.80
2022-11-28T23:49:09.187Z,5.70
2022-11-28T23:51:37.023Z,5.70
2022-11-28T23:54:04.332Z,5.80
2022-11-28T23:56:34.366Z,5.70
2022-11-28T23:59:03.369Z,5.70
